createdAt,value
2018-04-08T00:00:43.704Z,0
2018-04-08T00:01:46.421Z,0
2018-04-08T00:02:48.861Z,0
2018-04-08T00:03:51.293Z,0
2018-04-08T00:04:53.742Z,0
2018-04-08T00:05:56.183Z,0
2018-04-08T00:06:58.904Z,0
2018-04-08T00:08:01.341Z,0
2018-04-08T00:09:03.782Z,0
2018-04-08T00:10:06.508Z,0
2018-04-08T00:11:08.946Z,0
2018-04-08T00:12:11.769Z,0
2018-04-08T00:13:14.206Z,0
2018-04-08T00:14:16.634Z,0
2018-04-08T00:15:19.069Z,0
2018-04-08T00:16:21.503Z,0
2018-04-08T00:17:23.933Z,0
2018-04-08T00:18:26.382Z,0
2018-04-08T00:19:29.118Z,0
2018-04-08T00:20:31.557Z,0
2018-04-08T00:21:34.000Z,0
2018-04-08T00:22:36.439Z,0
2018-04-08T00:23:39.152Z,0
2018-04-08T00:24:41.587Z,0
2018-04-08T00:25:44.023Z,0
2018-04-08T00:26:46.456Z,0
2018-04-08T00:27:48.900Z,0
2018-04-08T00:28:51.337Z,0
2018-04-08T00:29:53.774Z,0
2018-04-08T00:30:56.206Z,0
2018-04-08T00:31:58.647Z,0
2018-04-08T00:33:01.082Z,0
2018-04-08T00:34:03.909Z,0
2018-04-08T00:35:06.631Z,0
2018-04-08T00:36:09.069Z,0
2018-04-08T00:37:11.895Z,0
2018-04-08T00:38:14.343Z,0
2018-04-08T00:39:17.160Z,0
2018-04-08T00:40:19.601Z,0
2018-04-08T00:41:22.050Z,0
2018-04-08T00:42:24.466Z,0
2018-04-08T00:43:26.906Z,0
2018-04-08T00:44:29.344Z,0
2018-04-08T00:45:31.778Z,0
2018-04-08T00:46:34.213Z,0
2018-04-08T00:47:36.661Z,0
2018-04-08T00:48:39.374Z,0
2018-04-08T00:49:42.117Z,0
2018-04-08T00:50:44.548Z,0
2018-04-08T00:51:47.258Z,0
2018-04-08T00:52:49.700Z,0
2018-04-08T00:53:52.424Z,0
2018-04-08T00:54:54.865Z,0
2018-04-08T00:55:57.308Z,0
2018-04-08T00:56:59.737Z,0
2018-04-08T00:58:02.172Z,0
2018-04-08T00:59:05.665Z,0
2018-04-08T01:00:08.421Z,0
2018-04-08T01:01:11.240Z,0
2018-04-08T01:02:13.968Z,0
2018-04-08T01:03:16.396Z,0
2018-04-08T01:04:18.849Z,0
2018-04-08T01:05:21.288Z,0
2018-04-08T01:06:23.717Z,0
2018-04-08T01:07:26.458Z,0
2018-04-08T01:08:29.178Z,0
2018-04-08T01:09:31.618Z,0
2018-04-08T01:10:34.052Z,0
2018-04-08T01:11:36.777Z,0
2018-04-08T01:12:39.217Z,0
2018-04-08T01:13:41.648Z,0
2018-04-08T01:14:44.073Z,0
2018-04-08T01:15:46.526Z,0
2018-04-08T01:16:48.963Z,0
2018-04-08T01:17:51.395Z,0
2018-04-08T01:18:53.831Z,0
2018-04-08T01:19:56.546Z,0
2018-04-08T01:20:58.974Z,0
2018-04-08T01:22:01.416Z,0
2018-04-08T01:23:04.280Z,0
2018-04-08T01:24:06.722Z,0
2018-04-08T01:25:09.447Z,0
2018-04-08T01:26:12.167Z,0
2018-04-08T01:27:14.604Z,0
2018-04-08T01:28:17.033Z,0
2018-04-08T01:29:19.460Z,0
2018-04-08T01:30:21.903Z,0
2018-04-08T01:31:24.338Z,0
2018-04-08T01:32:27.155Z,0
2018-04-08T01:33:29.581Z,0
2018-04-08T01:34:32.021Z,0
2018-04-08T01:35:34.741Z,0
2018-04-08T01:36:37.463Z,0
2018-04-08T01:37:40.490Z,0
2018-04-08T01:38:42.930Z,0
2018-04-08T01:39:45.352Z,0
2018-04-08T01:40:47.797Z,0
2018-04-08T01:41:50.238Z,0
2018-04-08T01:42:53.054Z,0
2018-04-08T01:43:55.489Z,0
2018-04-08T01:44:57.930Z,0
2018-04-08T01:46:00.357Z,0
2018-04-08T01:47:02.799Z,0
2018-04-08T01:48:05.231Z,0
2018-04-08T01:49:07.661Z,0
2018-04-08T01:50:10.099Z,0
2018-04-08T01:51:12.539Z,0
2018-04-08T01:52:14.974Z,0
2018-04-08T01:53:17.415Z,0
2018-04-08T01:54:20.124Z,0
2018-04-08T01:55:22.568Z,0
2018-04-08T01:56:25.002Z,0
2018-04-08T01:57:27.433Z,0
2018-04-08T01:58:29.871Z,0
2018-04-08T01:59:32.302Z,0
2018-04-08T02:00:34.736Z,0
2018-04-08T02:01:37.463Z,0
2018-04-08T02:02:39.885Z,0
2018-04-08T02:03:42.328Z,0
2018-04-08T02:04:44.753Z,0
2018-04-08T02:05:47.188Z,0
2018-04-08T02:06:49.629Z,0
2018-04-08T02:07:52.631Z,0
2018-04-08T02:08:55.070Z,0
2018-04-08T02:09:57.505Z,0
2018-04-08T02:11:00.227Z,0
2018-04-08T02:12:02.964Z,0
2018-04-08T02:13:05.411Z,0
2018-04-08T02:14:07.835Z,0
2018-04-08T02:15:10.278Z,0
2018-04-08T02:16:12.706Z,0
2018-04-08T02:17:15.140Z,0
2018-04-08T02:18:17.569Z,0
2018-04-08T02:19:20.009Z,0
2018-04-08T02:20:22.438Z,0
2018-04-08T02:21:25.178Z,0
2018-04-08T02:22:27.901Z,0
2018-04-08T02:23:30.631Z,0
2018-04-08T02:24:33.384Z,0
2018-04-08T02:25:35.821Z,0
2018-04-08T02:26:38.246Z,0
2018-04-08T02:27:40.693Z,0
2018-04-08T02:28:43.112Z,0
2018-04-08T02:29:45.554Z,0
2018-04-08T02:30:47.981Z,0
2018-04-08T02:31:50.410Z,0
2018-04-08T02:32:53.148Z,0
2018-04-08T02:33:55.589Z,0
2018-04-08T02:34:58.301Z,0
2018-04-08T02:36:00.750Z,0
2018-04-08T02:37:04.059Z,0
2018-04-08T02:38:06.494Z,0
2018-04-08T02:39:08.921Z,0
2018-04-08T02:40:11.344Z,0
2018-04-08T02:41:13.775Z,0
2018-04-08T02:42:16.514Z,0
2018-04-08T02:43:19.520Z,0
2018-04-08T02:44:22.336Z,0
2018-04-08T02:45:24.765Z,0
2018-04-08T02:46:27.230Z,0
2018-04-08T02:47:29.645Z,0
2018-04-08T02:48:32.674Z,0
2018-04-08T02:49:35.406Z,0
2018-04-08T02:50:37.840Z,0
2018-04-08T02:51:40.265Z,0
2018-04-08T02:52:42.707Z,0
2018-04-08T02:53:45.825Z,0
2018-04-08T02:54:48.258Z,0
2018-04-08T02:55:51.076Z,0
2018-04-08T02:56:53.507Z,0
2018-04-08T02:57:55.944Z,0
2018-04-08T02:58:58.368Z,0
2018-04-08T03:00:00.794Z,0
2018-04-08T03:01:03.240Z,0
2018-04-08T03:02:05.669Z,0
2018-04-08T03:03:08.094Z,0
2018-04-08T03:04:10.536Z,0
2018-04-08T03:05:12.968Z,0
2018-04-08T03:06:15.711Z,0
2018-04-08T03:07:18.146Z,0
2018-04-08T03:08:20.878Z,0
2018-04-08T03:09:23.313Z,0
2018-04-08T03:10:26.035Z,0
2018-04-08T03:11:28.480Z,0
2018-04-08T03:12:31.513Z,0
2018-04-08T03:13:33.948Z,0
2018-04-08T03:14:36.376Z,0
2018-04-08T03:15:38.809Z,0
2018-04-08T03:16:41.235Z,0
2018-04-08T03:17:43.687Z,0
2018-04-08T03:18:46.123Z,0
2018-04-08T03:19:48.550Z,0
2018-04-08T03:20:50.988Z,0
2018-04-08T03:21:53.425Z,0
2018-04-08T03:22:56.251Z,0
2018-04-08T03:23:58.683Z,0
2018-04-08T03:25:01.120Z,0
2018-04-08T03:26:03.841Z,0
2018-04-08T03:27:06.283Z,0
2018-04-08T03:28:08.716Z,0
2018-04-08T03:29:11.141Z,0
2018-04-08T03:30:13.885Z,0
2018-04-08T03:31:16.323Z,0
2018-04-08T03:32:18.759Z,0
2018-04-08T03:33:21.191Z,0
2018-04-08T03:34:23.724Z,0
2018-04-08T03:35:26.160Z,0
2018-04-08T03:36:28.600Z,0
2018-04-08T03:37:31.024Z,0
2018-04-08T03:38:33.458Z,0
2018-04-08T03:39:35.889Z,0
2018-04-08T03:40:38.321Z,0
2018-04-08T03:41:40.747Z,0
2018-04-08T03:42:43.195Z,0
2018-04-08T03:43:45.615Z,0
2018-04-08T03:44:48.059Z,0
2018-04-08T03:45:50.488Z,0
2018-04-08T03:46:52.914Z,0
2018-04-08T03:47:55.643Z,0
2018-04-08T03:48:58.074Z,0
2018-04-08T03:50:00.504Z,0
2018-04-08T03:51:02.944Z,0
2018-04-08T03:52:05.375Z,0
2018-04-08T03:53:07.810Z,0
2018-04-08T03:54:10.233Z,0
2018-04-08T03:55:12.672Z,0
2018-04-08T03:56:15.096Z,4
2018-04-08T03:57:17.921Z,4
2018-04-08T03:58:20.353Z,4
2018-04-08T03:59:22.790Z,0
2018-04-08T04:00:25.219Z,4
2018-04-08T04:01:27.659Z,4
2018-04-08T04:02:30.657Z,4
2018-04-08T04:03:33.095Z,4
2018-04-08T04:04:35.525Z,4
2018-04-08T04:05:37.953Z,8
2018-04-08T04:06:40.379Z,12
2018-04-08T04:07:42.821Z,12
2018-04-08T04:08:45.248Z,16
2018-04-08T04:09:47.681Z,20
2018-04-08T04:10:50.126Z,20
2018-04-08T04:11:53.141Z,24
2018-04-08T04:12:55.574Z,32
2018-04-08T04:13:58.014Z,36
2018-04-08T04:15:00.438Z,40
2018-04-08T04:16:02.869Z,44
2018-04-08T04:17:05.306Z,56
2018-04-08T04:18:07.738Z,68
2018-04-08T04:19:10.452Z,76
2018-04-08T04:20:12.884Z,88
2018-04-08T04:21:15.603Z,100
2018-04-08T04:22:18.039Z,108
2018-04-08T04:23:20.468Z,124
2018-04-08T04:24:22.896Z,144
2018-04-08T04:25:25.888Z,164
2018-04-08T04:26:28.336Z,184
2018-04-08T04:27:30.769Z,208
2018-04-08T04:28:33.213Z,232
2018-04-08T04:29:35.644Z,260
2018-04-08T04:30:38.074Z,292
2018-04-08T04:31:40.512Z,320
2018-04-08T04:32:42.949Z,352
2018-04-08T04:33:45.366Z,392
2018-04-08T04:34:47.795Z,428
2018-04-08T04:35:50.229Z,464
2018-04-08T04:36:52.663Z,508
2018-04-08T04:37:55.089Z,548
2018-04-08T04:38:57.529Z,592
2018-04-08T04:39:59.956Z,636
2018-04-08T04:41:02.443Z,688
2018-04-08T04:42:04.879Z,736
2018-04-08T04:43:07.306Z,788
2018-04-08T04:44:09.746Z,840
2018-04-08T04:45:12.171Z,892
2018-04-08T04:46:14.606Z,944
2018-04-08T04:47:17.040Z,1000
2018-04-08T04:48:19.869Z,1060
2018-04-08T04:49:22.585Z,1116
2018-04-08T04:50:25.023Z,1168
2018-04-08T04:51:28.142Z,1220
2018-04-08T04:52:30.853Z,1276
2018-04-08T04:53:33.293Z,1340
2018-04-08T04:54:35.729Z,1404
2018-04-08T04:55:38.166Z,1468
2018-04-08T04:56:40.886Z,1528
2018-04-08T04:57:43.319Z,1592
2018-04-08T04:58:45.744Z,1656
2018-04-08T04:59:48.188Z,1712
2018-04-08T05:00:50.621Z,1772
2018-04-08T05:01:53.040Z,1832
2018-04-08T05:02:55.470Z,1892
2018-04-08T05:03:57.900Z,1948
2018-04-08T05:05:00.341Z,2000
2018-04-08T05:06:02.773Z,2056
2018-04-08T05:07:05.776Z,2116
2018-04-08T05:08:08.208Z,2172
2018-04-08T05:09:10.929Z,2228
2018-04-08T05:10:13.355Z,2284
2018-04-08T05:11:15.793Z,2336
2018-04-08T05:12:18.224Z,2396
2018-04-08T05:13:20.663Z,2444
2018-04-08T05:14:23.375Z,2496
2018-04-08T05:15:25.815Z,2544
2018-04-08T05:16:28.234Z,2596
2018-04-08T05:17:30.669Z,2644
2018-04-08T05:18:33.098Z,2692
2018-04-08T05:19:35.527Z,2744
2018-04-08T05:20:37.952Z,2800
2018-04-08T05:21:40.378Z,2848
2018-04-08T05:22:43.408Z,2896
2018-04-08T05:23:46.163Z,2944
2018-04-08T05:24:48.597Z,2984
2018-04-08T05:25:51.025Z,3032
2018-04-08T05:26:53.462Z,3080
2018-04-08T05:27:56.479Z,3124
2018-04-08T05:28:58.906Z,3164
2018-04-08T05:30:01.338Z,3212
2018-04-08T05:31:04.104Z,3248
2018-04-08T05:32:06.525Z,3300
2018-04-08T05:33:08.984Z,3344
2018-04-08T05:34:11.468Z,3380
2018-04-08T05:35:14.186Z,3424
2018-04-08T05:36:16.616Z,3464
2018-04-08T05:37:19.056Z,3508
2018-04-08T05:38:21.479Z,3548
2018-04-08T05:39:23.906Z,3588
2018-04-08T05:40:26.354Z,3624
2018-04-08T05:41:28.781Z,3652
2018-04-08T05:42:31.203Z,3700
2018-04-08T05:43:33.634Z,3736
2018-04-08T05:44:36.439Z,3776
2018-04-08T05:45:38.882Z,3816
2018-04-08T05:46:41.604Z,3860
2018-04-08T05:47:44.026Z,3888
2018-04-08T05:48:46.458Z,3932
2018-04-08T05:49:48.892Z,3972
2018-04-08T05:50:51.319Z,4004
2018-04-08T05:51:53.762Z,4036
2018-04-08T05:52:56.189Z,4076
2018-04-08T05:53:58.623Z,4116
2018-04-08T05:55:01.059Z,4156
2018-04-08T05:56:03.487Z,4192
2018-04-08T05:57:06.320Z,4228
2018-04-08T05:58:08.762Z,4260
2018-04-08T05:59:11.471Z,4308
2018-04-08T06:00:13.908Z,4356
2018-04-08T06:01:16.338Z,4388
2018-04-08T06:02:18.773Z,4424
2018-04-08T06:03:21.195Z,4468
2018-04-08T06:04:23.645Z,4512
2018-04-08T06:05:26.078Z,4548
2018-04-08T06:06:28.513Z,4580
2018-04-08T06:07:30.954Z,4620
2018-04-08T06:08:33.382Z,4652
2018-04-08T06:09:35.816Z,4696
2018-04-08T06:10:38.252Z,4736
2018-04-08T06:11:40.676Z,4780
2018-04-08T06:12:43.109Z,4812
2018-04-08T06:13:45.552Z,4840
2018-04-08T06:14:47.984Z,4880
2018-04-08T06:15:50.416Z,4920
2018-04-08T06:16:52.847Z,4964
2018-04-08T06:17:55.579Z,4996
2018-04-08T06:18:58.018Z,5036
2018-04-08T06:20:00.453Z,5076
2018-04-08T06:21:03.458Z,5116
2018-04-08T06:22:05.893Z,5144
2018-04-08T06:23:08.617Z,5188
2018-04-08T06:24:11.049Z,5228
2018-04-08T06:25:13.472Z,5268
2018-04-08T06:26:15.906Z,5308
2018-04-08T06:27:18.351Z,5348
2018-04-08T06:28:21.060Z,5400
2018-04-08T06:29:23.496Z,5424
2018-04-08T06:30:25.928Z,5464
2018-04-08T06:31:28.368Z,5500
2018-04-08T06:32:30.811Z,5532
2018-04-08T06:33:33.629Z,5568
2018-04-08T06:34:36.068Z,5612
2018-04-08T06:35:38.503Z,5648
2018-04-08T06:36:40.931Z,5692
2018-04-08T06:37:43.358Z,5724
2018-04-08T06:38:45.796Z,5760
2018-04-08T06:39:48.525Z,5800
2018-04-08T06:40:51.273Z,5844
2018-04-08T06:41:53.710Z,5880
2018-04-08T06:42:56.142Z,5924
2018-04-08T06:43:58.575Z,5968
2018-04-08T06:45:01.016Z,6016
2018-04-08T06:46:04.033Z,6060
2018-04-08T06:47:06.461Z,6104
2018-04-08T06:48:09.198Z,6152
2018-04-08T06:49:11.629Z,6184
2018-04-08T06:50:14.065Z,6224
2018-04-08T06:51:16.502Z,6272
2018-04-08T06:52:19.313Z,6320
2018-04-08T06:53:22.040Z,6360
2018-04-08T06:54:24.475Z,6408
2018-04-08T06:55:26.898Z,6460
2018-04-08T06:56:29.348Z,6512
2018-04-08T06:57:31.783Z,6548
2018-04-08T06:58:34.493Z,6588
2018-04-08T06:59:36.936Z,6636
2018-04-08T07:00:39.371Z,6668
2018-04-08T07:01:41.816Z,6716
2018-04-08T07:02:44.817Z,6760
2018-04-08T07:03:47.261Z,6780
2018-04-08T07:04:49.700Z,6832
2018-04-08T07:08:35.403Z,6976
2018-04-08T07:11:18.625Z,7096
2018-04-08T07:12:21.056Z,7140
2018-04-08T07:13:23.500Z,7184
2018-04-08T07:14:25.937Z,7224
2018-04-08T07:15:28.659Z,7272
2018-04-08T07:16:31.092Z,7312
2018-04-08T07:17:33.847Z,7368
2018-04-08T07:18:36.301Z,7420
2018-04-08T07:19:38.705Z,7484
2018-04-08T07:20:41.148Z,7524
2018-04-08T07:21:43.885Z,7564
2018-04-08T07:22:46.620Z,7584
2018-04-08T07:23:49.056Z,7656
2018-04-08T07:24:51.880Z,7704
2018-04-08T07:25:54.323Z,7752
2018-04-08T07:26:56.754Z,7816
2018-04-08T07:27:59.199Z,7880
2018-04-08T07:29:01.629Z,7920
2018-04-08T07:30:04.074Z,7992
2018-04-08T07:31:06.500Z,8044
2018-04-08T07:32:09.236Z,8100
2018-04-08T07:33:11.668Z,8160
2018-04-08T07:34:14.489Z,8244
2018-04-08T07:35:16.921Z,8300
2018-04-08T07:36:19.362Z,8356
2018-04-08T07:37:21.797Z,8440
2018-04-08T07:38:24.621Z,8488
2018-04-08T07:39:27.052Z,8548
2018-04-08T07:40:29.498Z,8620
2018-04-08T07:41:32.311Z,8684
2018-04-08T07:42:35.043Z,8764
2018-04-08T07:43:38.051Z,8868
2018-04-08T07:44:40.483Z,8944
2018-04-08T07:45:42.925Z,9044
2018-04-08T07:46:45.358Z,9128
2018-04-08T07:47:48.084Z,9204
2018-04-08T07:48:50.526Z,9244
2018-04-08T07:49:52.993Z,9300
2018-04-08T07:50:55.714Z,9340
2018-04-08T07:51:58.149Z,9412
2018-04-08T07:53:00.596Z,12988
2018-04-08T07:54:03.032Z,41248
2018-04-08T07:55:05.751Z,63520
2018-04-08T07:56:08.179Z,67680
2018-04-08T07:57:10.632Z,67136
2018-04-08T07:58:13.058Z,72704
2018-04-08T07:59:15.497Z,64832
2018-04-08T08:00:17.935Z,51968
2018-04-08T08:01:20.753Z,47360
2018-04-08T08:02:23.864Z,56512
2018-04-08T08:03:26.307Z,59104
2018-04-08T08:04:28.742Z,66688
2018-04-08T08:05:31.560Z,67936
2018-04-08T08:06:34.003Z,57184
2018-04-08T08:07:36.442Z,56256
2018-04-08T08:08:38.890Z,61312
2018-04-08T08:09:41.319Z,55840
2018-04-08T08:10:43.762Z,53728
2018-04-08T08:11:46.197Z,61504
2018-04-08T08:12:48.637Z,69088
2018-04-08T08:13:51.072Z,72288
2018-04-08T08:14:53.515Z,71776
2018-04-08T08:15:55.947Z,73760
2018-04-08T08:16:58.393Z,73216
2018-04-08T08:18:00.831Z,79904
2018-04-08T08:19:03.269Z,76928
2018-04-08T08:20:05.704Z,80128
2018-04-08T08:21:08.432Z,98240
2018-04-08T08:22:10.861Z,94240
2018-04-08T08:23:13.304Z,86528
2018-04-08T08:24:15.734Z,78560
2018-04-08T08:25:18.178Z,71232
2018-04-08T08:26:20.616Z,72480
2018-04-08T08:27:23.055Z,70848
2018-04-08T08:28:25.490Z,65504
2018-04-08T08:29:27.938Z,64672
2018-04-08T08:30:30.369Z,61856
2018-04-08T08:31:32.825Z,54368
2018-04-08T08:32:35.549Z,59712
2018-04-08T08:33:38.656Z,67424
2018-04-08T08:34:41.105Z,68576
2018-04-08T08:35:43.542Z,65504
2018-04-08T08:36:45.984Z,66400
2018-04-08T08:37:48.420Z,64608
2018-04-08T08:38:50.868Z,70080
2018-04-08T08:39:53.317Z,82080
2018-04-08T08:40:56.034Z,81504
2018-04-08T08:41:58.480Z,75168
2018-04-08T08:43:00.916Z,81952
2018-04-08T08:44:03.362Z,109024
2018-04-08T08:45:05.807Z,140160
2018-04-08T08:46:08.242Z,153280
2018-04-08T08:47:10.686Z,143744
2018-04-08T08:48:13.139Z,116288
2018-04-08T08:49:15.590Z,99520
2018-04-08T08:50:18.314Z,97152
2018-04-08T08:51:21.066Z,93792
2018-04-08T08:52:23.504Z,93536
2018-04-08T08:53:26.005Z,93088
2018-04-08T08:54:28.454Z,91616
2018-04-08T08:55:30.887Z,93504
2018-04-08T08:56:33.336Z,89984
2018-04-08T08:57:36.165Z,86336
2018-04-08T08:58:38.613Z,83040
2018-04-08T08:59:41.057Z,77024
2018-04-08T09:00:43.937Z,75968
2018-04-08T09:01:46.394Z,85120
2018-04-08T09:02:48.943Z,86144
2018-04-08T09:03:51.386Z,84800
2018-04-08T09:04:53.868Z,89984
2018-04-08T09:05:56.625Z,90464
2018-04-08T09:06:59.945Z,98624
2018-04-08T09:08:02.473Z,100800
2018-04-08T09:09:05.138Z,104768
2018-04-08T09:10:07.579Z,119072
2018-04-08T09:11:10.479Z,117728
2018-04-08T09:12:13.044Z,118656
2018-04-08T09:13:15.546Z,129376
2018-04-08T09:14:18.008Z,127456
2018-04-08T09:15:20.626Z,119680
2018-04-08T09:16:23.079Z,123616
2018-04-08T09:17:25.606Z,123200
2018-04-08T09:18:28.144Z,133824
2018-04-08T09:19:30.804Z,138816
2018-04-08T09:20:34.688Z,119296
2018-04-08T09:21:37.133Z,112448
2018-04-08T09:22:39.860Z,117248
2018-04-08T09:23:42.395Z,116896
2018-04-08T09:24:45.654Z,117376
2018-04-08T09:25:48.199Z,108640
2018-04-08T09:26:50.704Z,102752
2018-04-08T09:27:53.199Z,108160
2018-04-08T09:28:55.974Z,105856
2018-04-08T09:29:58.420Z,100448
2018-04-08T09:31:01.123Z,100416
2018-04-08T09:32:05.106Z,106656
2018-04-08T09:33:07.610Z,107616
2018-04-08T09:34:10.053Z,116480
2018-04-08T09:35:12.499Z,115616
2018-04-08T09:36:15.017Z,97376
2018-04-08T09:37:17.396Z,92480
2018-04-08T09:38:19.839Z,101024
2018-04-08T09:39:22.297Z,100320
2018-04-08T09:40:24.747Z,99968
2018-04-08T09:41:27.191Z,106176
2018-04-08T09:42:29.642Z,103744
2018-04-08T09:43:32.089Z,101472
2018-04-08T09:44:34.538Z,114816
2018-04-08T09:45:37.004Z,125088
2018-04-08T09:46:39.447Z,117888
2018-04-08T09:47:41.899Z,122656
2018-04-08T09:48:44.641Z,130112
2018-04-08T09:49:47.096Z,133856
2018-04-08T09:50:49.541Z,149920
2018-04-08T09:51:52.278Z,152160
2018-04-08T09:52:54.717Z,137120
2018-04-08T09:53:57.486Z,124384
2018-04-08T09:54:59.964Z,116576
2018-04-08T09:56:02.753Z,110112
2018-04-08T09:57:05.488Z,108512
2018-04-08T09:58:07.941Z,105408
2018-04-08T09:59:10.388Z,98144
2018-04-08T10:00:13.120Z,93152
2018-04-08T10:01:15.578Z,97248
2018-04-08T10:02:18.027Z,106432
2018-04-08T10:03:20.479Z,117216
2018-04-08T10:04:22.928Z,111584
2018-04-08T10:05:25.402Z,100704
2018-04-08T10:06:27.822Z,110496
2018-04-08T10:07:30.281Z,116544
2018-04-08T10:08:32.737Z,113280
2018-04-08T10:09:35.567Z,106528
2018-04-08T10:10:38.025Z,107296
2018-04-08T10:11:40.464Z,115648
2018-04-08T10:12:42.904Z,114560
2018-04-08T10:13:45.660Z,111072
2018-04-08T10:14:48.401Z,106240
2018-04-08T10:15:50.852Z,112768
2018-04-08T10:16:53.306Z,111936
2018-04-08T10:17:55.791Z,104160
2018-04-08T10:18:58.241Z,101600
2018-04-08T10:20:00.986Z,106528
2018-04-08T10:21:03.715Z,113920
2018-04-08T10:22:06.452Z,110112
2018-04-08T10:23:08.893Z,110464
2018-04-08T10:24:11.344Z,119296
2018-04-08T10:25:13.793Z,123872
2018-04-08T10:26:16.239Z,123616
2018-04-08T10:27:18.701Z,117280
2018-04-08T10:28:21.829Z,106240
2018-04-08T10:29:24.671Z,111136
2018-04-08T10:30:27.467Z,112288
2018-04-08T10:31:29.923Z,110368
2018-04-08T10:32:32.662Z,112544
2018-04-08T10:33:35.399Z,118432
2018-04-08T10:34:37.952Z,122752
2018-04-08T10:35:40.687Z,115552
2018-04-08T10:36:43.147Z,97856
2018-04-08T10:37:45.599Z,93920
2018-04-08T10:38:48.049Z,95360
2018-04-08T10:39:50.514Z,99456
2018-04-08T10:40:52.961Z,105984
2018-04-08T10:41:55.408Z,111552
2018-04-08T10:42:57.870Z,107104
2018-04-08T10:44:00.313Z,106912
2018-04-08T10:45:03.162Z,111392
2018-04-08T10:46:05.618Z,116512
2018-04-08T10:47:08.437Z,124160
2018-04-08T10:48:10.887Z,122944
2018-04-08T10:49:13.346Z,115744
2018-04-08T10:50:15.795Z,108832
2018-04-08T10:51:18.260Z,104832
2018-04-08T10:52:21.294Z,104224
2018-04-08T10:53:23.749Z,111168
2018-04-08T10:54:26.201Z,115168
2018-04-08T10:55:28.650Z,115488
2018-04-08T10:56:31.677Z,122944
2018-04-08T10:57:34.137Z,123712
2018-04-08T10:58:36.872Z,116736
2018-04-08T10:59:39.338Z,118400
2018-04-08T11:00:41.789Z,120096
2018-04-08T11:01:44.236Z,115840
2018-04-08T11:02:46.977Z,120320
2018-04-08T11:03:49.440Z,123616
2018-04-08T11:04:51.909Z,114016
2018-04-08T11:05:54.340Z,110048
2018-04-08T11:06:56.795Z,120096
2018-04-08T11:07:59.238Z,129056
2018-04-08T11:09:01.712Z,125248
2018-04-08T11:10:04.144Z,113280
2018-04-08T11:11:06.606Z,105440
2018-04-08T11:12:09.054Z,107552
2018-04-08T11:13:11.504Z,110112
2018-04-08T11:14:13.955Z,102880
2018-04-08T11:15:16.691Z,99264
2018-04-08T11:16:19.518Z,102752
2018-04-08T11:17:21.982Z,105920
2018-04-08T11:18:24.705Z,112224
2018-04-08T11:19:27.157Z,107360
2018-04-08T11:20:29.613Z,104928
2018-04-08T11:21:32.447Z,107968
2018-04-08T11:22:34.953Z,106944
2018-04-08T11:23:37.363Z,104928
2018-04-08T11:24:39.813Z,111392
2018-04-08T11:25:42.270Z,111776
2018-04-08T11:26:44.728Z,105984
2018-04-08T11:27:47.754Z,103552
2018-04-08T11:28:50.213Z,110208
2018-04-08T11:29:52.666Z,118208
2018-04-08T11:30:55.396Z,118368
2018-04-08T11:31:58.145Z,116992
2018-04-08T11:33:00.607Z,118016
2018-04-08T11:34:03.072Z,114400
2018-04-08T11:35:05.801Z,104256
2018-04-08T11:36:08.544Z,102592
2018-04-08T11:37:11.011Z,114944
2018-04-08T11:38:13.849Z,129152
2018-04-08T11:39:16.336Z,123040
2018-04-08T11:40:18.805Z,115200
2018-04-08T11:41:21.287Z,116736
2018-04-08T11:42:23.748Z,123520
2018-04-08T11:43:26.245Z,121440
2018-04-08T11:44:28.695Z,118496
2018-04-08T11:45:31.552Z,125376
2018-04-08T11:46:34.008Z,123648
2018-04-08T11:47:36.499Z,116256
2018-04-08T11:48:38.954Z,119936
2018-04-08T11:49:41.429Z,127232
2018-04-08T11:50:43.883Z,125664
2018-04-08T11:51:46.387Z,115104
2018-04-08T11:52:49.221Z,104352
2018-04-08T11:53:51.967Z,107232
2018-04-08T11:54:54.421Z,111488
2018-04-08T11:55:57.157Z,113248
2018-04-08T11:56:59.901Z,110848
2018-04-08T11:58:02.353Z,97920
2018-04-08T11:59:04.795Z,106752
2018-04-08T12:00:07.246Z,121600
2018-04-08T12:01:09.706Z,120832
2018-04-08T12:04:05.887Z,98880
2018-04-08T12:05:08.973Z,99424
2018-04-08T12:06:11.940Z,101632
2018-04-08T12:07:14.355Z,104448
2018-04-08T12:08:17.326Z,101120
2018-04-08T12:09:19.705Z,95232
2018-04-08T12:10:22.945Z,94400
2018-04-08T12:11:25.419Z,95968
2018-04-08T12:12:27.874Z,97888
2018-04-08T12:13:30.277Z,104832
2018-04-08T12:14:32.892Z,114464
2018-04-08T12:15:35.900Z,103712
2018-04-08T12:16:39.266Z,99264
2018-04-08T12:17:41.893Z,106080
2018-04-08T12:18:44.329Z,99936
2018-04-08T12:19:46.801Z,97056
2018-04-08T12:20:49.728Z,102816
2018-04-08T12:21:52.582Z,95424
2018-04-08T12:22:55.264Z,88352
2018-04-08T12:23:58.385Z,85664
2018-04-08T12:25:00.795Z,85216
2018-04-08T12:26:03.881Z,87712
2018-04-08T12:27:06.816Z,86656
2018-04-08T12:28:09.522Z,83456
2018-04-08T12:29:12.230Z,82016
2018-04-08T12:30:14.639Z,88448
2018-04-08T12:31:17.461Z,99552
2018-04-08T12:32:19.840Z,107680
2018-04-08T12:33:22.526Z,107200
2018-04-08T12:34:24.933Z,105024
2018-04-08T12:35:27.335Z,97024
2018-04-08T12:36:29.732Z,95584
2018-04-08T12:37:32.138Z,100928
2018-04-08T12:38:34.542Z,103232
2018-04-08T12:39:36.947Z,106624
2018-04-08T12:40:39.359Z,120544
2018-04-08T12:41:41.747Z,125184
2018-04-08T12:42:44.149Z,126624
2018-04-08T12:43:46.546Z,138976
2018-04-08T12:44:48.951Z,129760
2018-04-08T12:45:51.354Z,118176
2018-04-08T12:46:54.026Z,116352
2018-04-08T12:47:56.418Z,115552
2018-04-08T12:48:58.813Z,115616
2018-04-08T12:50:01.209Z,127968
2018-04-08T12:51:03.627Z,146176
2018-04-08T12:52:06.582Z,149056
2018-04-08T12:53:08.986Z,137536
2018-04-08T12:54:11.400Z,127808
2018-04-08T12:55:13.803Z,119840
2018-04-08T12:56:16.217Z,129056
2018-04-08T12:57:18.680Z,126624
2018-04-08T12:58:21.375Z,116288
2018-04-08T12:59:23.803Z,112768
2018-04-08T13:00:26.248Z,111392
2018-04-08T13:01:28.620Z,113760
2018-04-08T13:02:31.033Z,109216
2018-04-08T13:03:33.466Z,100576
2018-04-08T13:04:36.147Z,97216
2018-04-08T13:05:38.559Z,99904
2018-04-08T13:06:40.953Z,105216
2018-04-08T13:07:43.761Z,103488
2018-04-08T13:08:46.163Z,101088
2018-04-08T13:09:48.566Z,97440
2018-04-08T13:10:50.966Z,98112
2018-04-08T13:11:53.669Z,93248
2018-04-08T13:12:56.073Z,93184
2018-04-08T13:13:58.788Z,104928
2018-04-08T13:15:01.205Z,120992
2018-04-08T13:16:03.613Z,112768
2018-04-08T13:17:06.024Z,94816
2018-04-08T13:18:08.411Z,87968
2018-04-08T13:19:10.819Z,84960
2018-04-08T13:20:13.785Z,101408
2018-04-08T13:21:16.187Z,108800
2018-04-08T13:22:18.586Z,93664
2018-04-08T13:23:20.999Z,85856
2018-04-08T13:24:23.961Z,79456
2018-04-08T13:25:26.387Z,87232
2018-04-08T13:26:28.795Z,93984
2018-04-08T13:27:31.196Z,87136
2018-04-08T13:28:33.624Z,78816
2018-04-08T13:29:36.025Z,70560
2018-04-08T13:30:38.702Z,79456
2018-04-08T13:31:41.101Z,82528
2018-04-08T13:32:43.793Z,81504
2018-04-08T13:33:46.202Z,86112
2018-04-08T13:34:48.600Z,84224
2018-04-08T13:35:51.028Z,69792
2018-04-08T13:36:53.731Z,73056
2018-04-08T13:37:56.138Z,65792
2018-04-08T13:38:58.848Z,82144
2018-04-08T13:40:01.247Z,83488
2018-04-08T13:41:04.041Z,82784
2018-04-08T13:42:06.842Z,92736
2018-04-08T13:43:09.245Z,94496
2018-04-08T13:44:11.655Z,76928
2018-04-08T13:45:14.057Z,78752
2018-04-08T13:46:16.467Z,96768
2018-04-08T13:47:18.867Z,93632
2018-04-08T13:48:21.307Z,76096
2018-04-08T13:49:23.660Z,75776
2018-04-08T13:50:26.379Z,64352
2018-04-08T13:51:28.789Z,75008
2018-04-08T13:52:31.190Z,75520
2018-04-08T13:53:33.599Z,74176
2018-04-08T13:54:35.998Z,74784
2018-04-08T13:55:38.399Z,75840
2018-04-08T13:56:40.801Z,79584
2018-04-08T13:57:43.199Z,68064
2018-04-08T13:58:45.601Z,68000
2018-04-08T13:59:47.998Z,62528
2018-04-08T14:00:50.687Z,70240
2018-04-08T14:01:53.087Z,70304
2018-04-08T14:02:55.791Z,64128
2018-04-08T14:03:58.485Z,59904
2018-04-08T14:05:00.894Z,59200
2018-04-08T14:06:03.574Z,70112